Time;durP1;ratioP1;P1;durP2;ratioP2;P2;SDS_P1;SDS_P2;PMS_P1;PMS_P2;Temp;Humidity;BMP_temperature;BMP_pressure;BME280_temperature;BME280_humidity;BME280_pressure;Samples;Min_cycle;Max_cycle;Signal;HPM_P1;HPM_P2
2023/08/12 00:02:28;;;;;;;3.63;1.80;;;;;;;15.87;85.95;100608.22;6272225;28;20497;-71
2023/08/12 00:05:29;;;;;;;1.88;1.58;;;;;;;15.86;85.70;100605.72;6271314;28;20140;-71
2023/08/12 00:08:31;;;;;;;1.95;1.67;;;;;;;15.78;85.44;100608.09;6271397;28;20052;-71
2023/08/12 00:11:31;;;;;;;2.97;1.70;;;;;;;15.78;87.53;100608.09;6271170;28;20057;-71
2023/08/12 00:14:34;;;;;;;2.17;1.70;;;;;;;15.74;88.66;100601.38;6270850;28;20098;-72
2023/08/12 00:17:37;;;;;;;2.13;1.75;;;;;;;15.69;88.63;100601.69;6272103;28;20059;-71
2023/08/12 00:20:37;;;;;;;3.58;1.90;;;;;;;15.61;86.29;100594.34;6270649;28;20461;-71
2023/08/12 00:23:40;;;;;;;2.97;1.85;;;;;;;15.68;86.39;100603.44;6271895;28;20068;-71
2023/08/12 00:26:45;;;;;;;4.13;1.70;;;;;;;15.65;87.05;100594.97;6270563;28;20491;-71
2023/08/12 00:29:46;;;;;;;2.45;1.75;;;;;;;15.66;87.38;100597.47;6270502;28;20049;-72
2023/08/12 00:32:47;;;;;;;4.18;2.25;;;;;;;15.62;88.28;100603.91;6270687;28;20048;-72
2023/08/12 00:35:50;;;;;;;4.45;1.70;;;;;;;15.56;87.51;100598.25;6271372;28;20496;-71
2023/08/12 00:38:51;;;;;;;7.75;1.92;;;;;;;15.56;87.73;100593.81;6270389;28;20053;-72
2023/08/12 00:41:51;;;;;;;1.95;1.70;;;;;;;15.50;88.87;100595.13;6271206;28;20049;-71
2023/08/12 00:44:52;;;;;;;5.28;1.60;;;;;;;15.52;88.05;100587.97;6271557;28;20489;-71
2023/08/12 00:47:53;;;;;;;2.63;1.80;;;;;;;15.46;86.95;100585.81;6269966;28;20135;-71
2023/08/12 00:50:56;;;;;;;3.28;1.63;;;;;;;15.43;86.63;100587.81;6269884;28;20140;-71
2023/08/12 00:53:59;;;;;;;3.75;1.63;;;;;;;15.39;88.67;100589.81;6271543;28;20057;-71
2023/08/12 00:57:00;;;;;;;4.40;1.90;;;;;;;15.35;90.96;100577.00;6270249;28;20064;-71
2023/08/12 01:00:03;;;;;;;2.60;1.88;;;;;;;15.31;89.94;100574.59;6269641;28;20487;-71
2023/08/12 01:03:05;;;;;;;1.77;1.52;;;;;;;15.25;89.66;100580.28;6269539;28;20132;-71
2023/08/12 01:06:07;;;;;;;2.72;1.70;;;;;;;15.26;89.91;100579.34;6268254;28;20107;-71
2023/08/12 01:09:08;;;;;;;3.80;2.10;;;;;;;15.20;89.13;100573.69;6269432;28;20497;-72
2023/08/12 01:12:28;;;;;;;2.35;1.92;;;;;;;15.21;88.68;100575.38;6269648;28;20051;-71
2023/08/12 01:15:29;;;;;;;2.63;1.50;;;;;;;15.18;90.29;100578.22;6268078;28;20057;-72
2023/08/12 01:18:30;;;;;;;2.33;1.60;;;;;;;15.20;88.92;100573.69;6269252;28;20427;-71
2023/08/12 01:21:36;;;;;;;2.47;1.77;;;;;;;15.10;89.10;100574.34;6267885;28;20059;-72
2023/08/12 01:24:44;;;;;;;1.90;1.65;;;;;;;15.08;89.62;100580.66;6268029;28;20178;-71
2023/08/12 01:27:45;;;;;;;1.77;1.48;;;;;;;15.04;89.94;100580.03;6267976;28;20049;-71
2023/08/12 01:30:56;;;;;;;3.10;2.00;;;;;;;15.03;89.35;100577.50;6269445;28;20091;-71
2023/08/12 01:34:06;;;;;;;7.13;2.10;;;;;;;15.06;91.16;100579.94;6269160;28;20048;-71
2023/08/12 01:37:11;;;;;;;2.72;1.63;;;;;;;15.00;91.03;100586.47;6268026;28;20057;-71
2023/08/12 01:40:15;;;;;;;2.78;1.88;;;;;;;14.98;90.50;100593.63;6269049;28;20059;-71
2023/08/12 01:43:15;;;;;;;4.45;2.00;;;;;;;14.95;90.35;100588.59;6268046;28;20076;-71
2023/08/12 01:46:16;;;;;;;5.60;2.20;;;;;;;14.84;90.43;100591.94;6267876;28;20061;-71
2023/08/12 01:49:17;;;;;;;2.88;2.00;;;;;;;14.81;90.96;100597.44;6267575;28;20136;-71
2023/08/12 01:52:18;;;;;;;2.67;1.75;;;;;;;14.80;90.96;100595.75;6269076;28;20041;-71
2023/08/12 01:55:18;;;;;;;2.35;1.90;;;;;;;14.76;91.26;100599.53;6267627;28;20056;-71
2023/08/12 01:58:19;;;;;;;2.30;1.80;;;;;;;14.76;90.52;100596.91;6268415;28;20053;-72
2023/08/12 02:01:20;;;;;;;2.95;1.90;;;;;;;14.78;91.11;100600.25;6272397;28;20064;-71
2023/08/12 02:04:21;;;;;;;3.78;1.77;;;;;;;14.75;93.26;100589.16;6272674;28;20041;-71
2023/08/12 02:07:21;;;;;;;2.95;1.90;;;;;;;14.66;93.62;100590.63;6272295;28;20053;-71
2023/08/12 02:10:22;;;;;;;2.75;1.88;;;;;;;14.65;93.43;100591.56;6273903;28;20060;-71
2023/08/12 02:13:23;;;;;;;3.33;1.98;;;;;;;14.61;94.62;100592.72;6272214;28;20086;-71
2023/08/12 02:16:23;;;;;;;2.42;1.92;;;;;;;14.60;93.27;100598.91;6272215;28;20045;-71
2023/08/12 02:19:24;;;;;;;3.60;2.20;;;;;;;14.51;93.48;100600.38;6272165;28;20106;-71
2023/08/12 02:22:25;;;;;;;3.47;1.83;;;;;;;14.48;93.17;100603.22;6273233;28;20056;-71
2023/08/12 02:25:26;;;;;;;3.30;2.00;;;;;;;14.53;92.76;100611.59;6273201;28;20056;-72
2023/08/12 02:28:27;;;;;;;2.90;2.13;;;;;;;14.51;92.60;100606.44;6272179;28;20114;-71
2023/08/12 02:31:27;;;;;;;3.60;1.65;;;;;;;14.48;93.97;100603.22;6273327;28;20052;-71
2023/08/12 02:34:28;;;;;;;1.70;1.60;;;;;;;14.44;92.45;100605.22;6271739;28;20103;-71
2023/08/12 02:37:29;;;;;;;2.97;1.77;;;;;;;14.47;93.29;100602.34;6273122;28;20053;-71
2023/08/12 02:40:30;;;;;;;2.45;1.75;;;;;;;14.51;92.59;100611.69;6272887;28;20059;-71
2023/08/12 02:43:32;;;;;;;3.70;2.00;;;;;;;14.48;92.18;100603.22;6272898;28;20052;-71
2023/08/12 02:46:33;;;;;;;2.88;2.00;;;;;;;14.38;92.95;100604.78;6272613;28;20049;-72
2023/08/12 02:49:34;;;;;;;2.67;1.75;;;;;;;14.36;93.46;100597.00;6271072;28;20535;-72
2023/08/12 02:52:35;;;;;;;2.35;1.90;;;;;;;14.35;93.80;100600.59;6272695;28;20056;-71
2023/08/12 02:55:37;;;;;;;2.45;1.73;;;;;;;14.32;94.64;100606.88;6272488;28;20053;-71
2023/08/12 02:58:38;;;;;;;2.28;1.75;;;;;;;14.32;92.99;100613.91;6271299;28;20044;-71
2023/08/12 03:01:41;;;;;;;4.05;1.58;;;;;;;14.35;92.59;100597.13;6270969;28;20055;-71
2023/08/12 03:04:42;;;;;;;2.08;1.50;;;;;;;14.41;91.90;100602.81;6270935;28;20045;-71
2023/08/12 03:07:42;;;;;;;2.20;1.63;;;;;;;14.29;92.18;100595.75;6271934;28;20408;-72
2023/08/12 03:10:45;;;;;;;3.47;2.05;;;;;;;14.28;93.67;100602.78;6270953;28;20477;-72
2023/08/12 03:13:45;;;;;;;2.08;1.85;;;;;;;14.27;94.08;100602.91;6272245;28;20095;-72
2023/08/12 03:16:48;;;;;;;2.25;1.95;;;;;;;14.35;92.83;100603.22;6270789;28;20246;-72
2023/08/12 03:19:49;;;;;;;2.03;1.83;;;;;;;14.30;92.63;100605.31;6270802;28;20055;-71
2023/08/12 03:22:50;;;;;;;2.42;1.88;;;;;;;14.21;93.38;100611.19;6270493;28;20398;-72
2023/08/12 03:25:51;;;;;;;2.28;1.50;;;;;;;14.25;92.16;100604.78;6270747;28;20048;-71
2023/08/12 03:28:52;;;;;;;1.90;1.63;;;;;;;14.22;93.19;100597.94;6270409;28;20049;-71
2023/08/12 03:31:52;;;;;;;4.50;1.67;;;;;;;14.33;92.06;100607.75;6270623;28;20084;-72
2023/08/12 03:34:53;;;;;;;2.20;1.85;;;;;;;14.28;93.74;100608.03;6270360;28;20059;-71
2023/08/12 03:37:54;;;;;;;1.90;1.43;;;;;;;14.22;93.68;100602.34;6271723;28;20053;-71
2023/08/12 03:40:55;;;;;;;2.58;1.92;;;;;;;14.17;93.52;100601.84;6270203;28;20048;-71
2023/08/12 03:43:56;;;;;;;3.10;1.98;;;;;;;14.09;96.33;100607.59;6271497;28;20041;-72
2023/08/12 03:46:56;;;;;;;1.92;1.70;;;;;;;14.09;97.74;100599.72;6271323;28;20057;-71
2023/08/12 03:49:59;;;;;;;3.85;2.25;;;;;;;14.07;97.67;100615.56;6270986;28;20067;-71
2023/08/12 03:53:00;;;;;;;4.72;2.03;;;;;;;14.07;95.48;100615.56;6270070;28;20127;-71
2023/08/12 03:56:03;;;;;;;2.25;1.65;;;;;;;14.07;95.47;100617.34;6271059;28;20049;-71
2023/08/12 03:59:04;;;;;;;3.80;1.85;;;;;;;14.08;94.63;100606.75;6271152;28;20398;-71
2023/08/12 04:02:05;;;;;;;1.60;1.33;;;;;;;14.17;94.90;100614.97;6270876;28;20049;-71
2023/08/12 04:05:07;;;;;;;2.22;1.65;;;;;;;14.25;93.57;100608.25;6271327;28;20179;-71
2023/08/12 04:08:10;;;;;;;4.00;2.30;;;;;;;14.23;91.15;100614.56;6269562;28;20136;-71
2023/08/12 04:11:10;;;;;;;1.88;1.60;;;;;;;14.29;91.28;100614.97;6270970;28;20111;-71
2023/08/12 04:14:12;;;;;;;1.95;1.63;;;;;;;14.32;91.29;100613.91;6270750;28;20132;-71
2023/08/12 04:17:13;;;;;;;2.25;1.83;;;;;;;14.34;88.80;100614.66;6270871;28;20098;-71
2023/08/12 04:20:14;;;;;;;2.42;1.77;;;;;;;14.41;89.05;100622.94;6269506;28;20053;-71
2023/08/12 04:23:15;;;;;;;2.85;1.70;;;;;;;14.48;87.58;100619.81;6268555;28;20478;-71
2023/08/12 04:26:18;;;;;;;2.75;2.03;;;;;;;14.57;87.09;100628.88;6270567;28;20394;-71
2023/08/12 04:29:19;;;;;;;5.32;2.03;;;;;;;14.72;86.03;100632.22;6269069;28;20103;-71
2023/08/12 04:32:22;;;;;;;2.55;1.98;;;;;;;14.84;84.79;100630.53;6270271;28;20049;-72
2023/08/12 04:35:23;;;;;;;7.32;2.20;;;;;;;15.02;83.05;100636.28;6270165;28;20412;-71
2023/08/12 04:38:23;;;;;;;3.40;1.70;;;;;;;15.04;82.92;100637.03;6270022;28;20060;-71
2023/08/12 04:41:24;;;;;;;2.45;1.80;;;;;;;15.06;82.08;100637.75;6268805;28;20390;-72
2023/08/12 04:44:25;;;;;;;4.18;1.88;;;;;;;15.17;82.83;100639.63;6270114;28;20047;-71
2023/08/12 04:47:28;;;;;;;1.88;1.60;;;;;;;15.37;82.56;100641.66;6270114;28;20052;-71
2023/08/12 04:50:30;;;;;;;1.73;1.40;;;;;;;15.50;80.62;100639.00;6268485;28;20149;-71
2023/08/12 04:53:31;;;;;;;2.08;1.80;;;;;;;15.47;80.74;100642.69;6269874;28;20110;-71
2023/08/12 04:56:32;;;;;;;5.68;1.80;;;;;;;15.57;80.73;100642.03;6268420;28;20053;-72
2023/08/12 04:59:35;;;;;;;1.95;1.70;;;;;;;15.66;80.36;100639.56;6268356;28;20102;-72
2023/08/12 05:02:36;;;;;;;1.70;1.33;;;;;;;15.79;81.46;100641.31;6268333;28;20133;-72
2023/08/12 05:05:39;;;;;;;1.48;1.38;;;;;;;15.91;79.85;100646.50;6268401;28;20057;-72
2023/08/12 05:08:40;;;;;;;2.53;1.70;;;;;;;16.00;78.56;100641.50;6269437;28;20102;-71
2023/08/12 05:11:40;;;;;;;5.93;1.73;;;;;;;16.18;78.88;100649.84;6268525;28;20045;-71
2023/08/12 05:14:41;;;;;;;2.83;1.38;;;;;;;16.32;78.76;100639.09;6268226;28;20053;-72
2023/08/12 05:17:42;;;;;;;2.65;1.77;;;;;;;16.39;78.56;100642.09;6268367;28;20122;-72
2023/08/12 05:20:43;;;;;;;4.43;1.65;;;;;;;16.52;79.17;100643.69;6268141;28;20056;-72
2023/08/12 05:23:43;;;;;;;2.45;1.52;;;;;;;16.55;76.54;100647.88;6267984;28;20056;-72
2023/08/12 05:26:44;;;;;;;1.70;1.40;;;;;;;16.79;76.55;100655.69;6269403;28;20049;-72
2023/08/12 05:29:45;;;;;;;2.85;1.90;;;;;;;16.86;77.02;100651.69;6269107;28;20103;-72
2023/08/12 05:32:46;;;;;;;3.45;1.65;;;;;;;17.02;76.63;100655.72;6268300;28;20048;-72
2023/08/12 05:35:50;;;;;;;7.38;1.65;;;;;;;17.12;76.35;100659.31;6272843;28;20052;-72
2023/08/12 05:38:50;;;;;;;2.97;1.88;;;;;;;17.25;75.42;100656.53;6273060;28;20433;-71
2023/08/12 05:41:54;;;;;;;3.10;2.08;;;;;;;17.33;74.82;100657.59;6272923;28;20052;-71
2023/08/12 05:44:57;;;;;;;5.30;1.73;;;;;;;17.42;74.04;100655.19;6274286;28;20045;-72
2023/08/12 05:47:58;;;;;;;2.00;1.70;;;;;;;17.63;74.05;100661.38;6272927;28;20045;-71
2023/08/12 05:50:59;;;;;;;2.97;1.95;;;;;;;17.80;72.67;100662.66;6272573;28;20416;-72
2023/08/12 05:53:59;;;;;;;2.45;1.58;;;;;;;18.02;72.82;100660.94;6274147;28;20049;-72
2023/08/12 05:57:00;;;;;;;1.98;1.45;;;;;;;18.15;72.04;100664.22;6273827;28;20102;-72
2023/08/12 06:00:01;;;;;;;1.60;1.50;;;;;;;18.21;71.43;100658.41;6272523;28;20053;-71
2023/08/12 06:03:02;;;;;;;1.58;1.30;;;;;;;18.35;71.91;100659.91;6273733;28;20041;-71
2023/08/12 06:06:05;;;;;;;1.77;1.30;;;;;;;18.57;72.28;100658.91;6273890;28;20108;-71
2023/08/12 06:09:06;;;;;;;2.08;1.60;;;;;;;18.68;70.60;100665.94;6273602;28;20052;-72
2023/08/12 06:12:07;;;;;;;6.25;1.48;;;;;;;18.85;69.44;100661.88;6272680;28;20136;-72
2023/08/12 06:15:08;;;;;;;2.80;1.70;;;;;;;19.02;68.55;100666.53;6273597;28;20111;-72
2023/08/12 06:18:09;;;;;;;3.25;1.35;;;;;;;19.24;67.31;100670.78;6272505;28;20386;-72
2023/08/12 06:21:14;;;;;;;3.90;1.45;;;;;;;19.39;67.55;100675.72;6273263;28;20053;-72
2023/08/12 06:24:15;;;;;;;3.05;1.83;;;;;;;19.61;67.46;100674.66;6273134;28;20401;-72
2023/08/12 06:27:19;;;;;;;5.25;1.58;;;;;;;19.71;65.60;100668.41;6273393;28;20546;-72
2023/08/12 06:30:20;;;;;;;2.22;1.60;;;;;;;19.96;66.39;100668.03;6272913;28;20098;-73
2023/08/12 06:33:21;;;;;;;1.47;1.37;;;;;;;20.19;65.82;100664.09;6273258;28;20049;-72
2023/08/12 06:36:24;;;;;;;3.97;1.75;;;;;;;20.39;63.66;100664.09;6271715;28;20056;-72
2023/08/12 06:39:25;;;;;;;3.17;1.80;;;;;;;20.63;63.73;100666.28;6273170;28;20049;-72
2023/08/12 06:42:27;;;;;;;3.20;1.63;;;;;;;20.83;61.55;100659.09;6272742;28;20041;-72
2023/08/12 06:45:30;;;;;;;4.40;1.40;;;;;;;21.07;62.07;100667.38;6272308;28;20084;-72
2023/08/12 06:48:32;;;;;;;1.58;1.20;;;;;;;21.09;60.54;100659.28;6271481;28;20056;-72
2023/08/12 06:51:33;;;;;;;3.10;1.43;;;;;;;21.21;59.23;100671.34;6272903;28;20053;-72
2023/08/12 06:54:34;;;;;;;2.00;1.50;;;;;;;21.40;59.93;100664.28;6271483;28;20041;-72
2023/08/12 06:57:34;;;;;;;2.30;1.50;;;;;;;21.44;57.76;100668.34;6272495;28;20056;-72
2023/08/12 07:00:35;;;;;;;1.83;1.10;;;;;;;21.52;57.14;100671.91;6271331;28;20049;-72
2023/08/12 07:03:36;;;;;;;2.30;1.47;;;;;;;21.56;57.16;100669.78;6271202;28;20044;-72
2023/08/12 07:06:36;;;;;;;1.40;1.13;;;;;;;21.60;55.39;100657.88;6272509;28;20053;-72
2023/08/12 07:09:37;;;;;;;1.60;1.27;;;;;;;21.87;55.98;100670.25;6272312;28;20055;-72
2023/08/12 07:12:38;;;;;;;1.33;1.10;;;;;;;21.93;54.50;100664.34;6272035;28;20059;-72
2023/08/12 07:15:38;;;;;;;4.47;1.50;;;;;;;22.15;53.88;100664.81;6270927;28;20079;-72
2023/08/12 07:18:39;;;;;;;3.33;1.37;;;;;;;22.35;53.53;100656.72;6271011;28;20049;-72
2023/08/12 07:21:40;;;;;;;1.50;1.40;;;;;;;22.53;57.18;100666.31;6271895;28;20049;-72
2023/08/12 07:24:41;;;;;;;1.43;1.33;;;;;;;22.59;53.53;100664.00;6271763;28;20064;-72
2023/08/12 07:27:42;;;;;;;4.23;1.23;;;;;;;22.72;52.04;100662.59;6270774;28;20060;-72
2023/08/12 07:30:42;;;;;;;2.33;1.30;;;;;;;22.70;50.04;100658.44;6271635;28;20045;-72
2023/08/12 07:33:43;;;;;;;2.70;1.27;;;;;;;23.00;51.74;100662.41;6270505;28;20132;-73
2023/08/12 07:36:44;;;;;;;2.27;1.30;;;;;;;23.25;51.41;100660.69;6271663;28;20481;-73
2023/08/12 07:39:45;;;;;;;2.97;1.10;;;;;;;23.29;50.68;100661.22;6271765;28;20132;-72
2023/08/12 07:42:46;;;;;;;4.67;1.50;;;;;;;23.51;49.88;100665.09;6271271;28;20048;-72
2023/08/12 07:45:52;;;;;;;2.17;1.27;;;;;;;23.63;48.33;100658.44;6270442;28;20052;-72
2023/08/12 07:48:53;;;;;;;1.30;1.10;;;;;;;23.86;50.72;100653.34;6271372;28;20088;-72
2023/08/12 07:51:53;;;;;;;2.67;1.17;;;;;;;23.46;46.68;100654.94;6269982;28;20074;-73
2023/08/12 07:54:54;;;;;;;1.77;1.20;;;;;;;23.87;47.27;100654.19;6269976;28;20136;-73
2023/08/12 07:57:55;;;;;;;1.83;1.50;;;;;;;24.09;45.53;100661.53;6270122;28;20052;-72
2023/08/12 08:00:55;;;;;;;4.37;1.63;;;;;;;24.27;45.77;100658.66;6271123;28;20483;-73
2023/08/12 08:03:56;;;;;;;2.73;1.53;;;;;;;24.22;44.95;100658.34;6269792;28;20056;-73
2023/08/12 08:06:57;;;;;;;2.93;1.20;;;;;;;24.34;47.45;100658.84;6269982;28;20080;-73
2023/08/12 08:09:58;;;;;;;1.83;1.20;;;;;;;24.70;45.18;100655.78;6269429;28;20105;-73
2023/08/12 08:12:59;;;;;;;1.63;1.30;;;;;;;24.84;48.27;100660.41;6270804;28;20041;-73
2023/08/12 08:16:00;;;;;;;1.93;1.30;;;;;;;24.94;45.13;100658.38;6269504;28;20285;-73
2023/08/12 08:19:03;;;;;;;2.63;1.20;;;;;;;25.10;45.00;100652.16;6270712;28;20132;-73
2023/08/12 08:22:04;;;;;;;1.58;1.23;;;;;;;25.16;43.68;100657.78;6269097;28;20055;-73
2023/08/12 08:37:45;;;;;;;1.77;1.10;;;;;;;25.58;43.54;100644.06;6343696;27;20374;-71
2023/08/12 08:40:46;;;;;;;3.03;1.33;;;;;;;25.71;41.29;100636.25;6343905;28;20405;-71
2023/08/12 08:43:48;;;;;;;1.92;1.20;;;;;;;25.63;42.48;100644.34;6342445;28;20051;-71
2023/08/12 08:46:55;;;;;;;1.20;1.10;;;;;;;25.92;42.52;100643.69;6342517;28;20048;-71
2023/08/12 08:49:57;;;;;;;2.90;1.33;;;;;;;26.07;40.73;100645.56;6343539;28;20047;-71
2023/08/12 08:53:00;;;;;;;2.05;1.20;;;;;;;25.89;40.07;100643.16;6343575;28;20051;-71
2023/08/12 08:56:01;;;;;;;1.20;1.00;;;;;;;25.95;41.42;100647.00;6342290;28;20052;-71
2023/08/12 08:59:02;;;;;;;1.55;1.20;;;;;;;26.18;40.81;100644.28;6343600;28;20109;-71
2023/08/12 09:02:05;;;;;;;1.65;1.38;;;;;;;26.19;39.31;100648.59;6342221;28;20076;-71
2023/08/12 09:05:07;;;;;;;2.78;1.27;;;;;;;26.23;37.43;100637.38;6341879;28;20040;-71
2023/08/12 09:08:10;;;;;;;1.35;1.23;;;;;;;26.45;38.24;100629.47;6342022;28;20047;-71
2023/08/12 09:11:13;;;;;;;1.25;1.10;;;;;;;26.63;37.25;100634.50;6341731;28;20406;-71
2023/08/12 09:14:18;;;;;;;2.35;1.30;;;;;;;26.41;39.23;100634.34;6341675;28;20071;-71
2023/08/12 09:17:19;;;;;;;4.30;1.27;;;;;;;26.23;37.77;100628.50;6341691;28;20104;-71
2023/08/12 09:20:20;;;;;;;2.63;1.20;;;;;;;26.83;40.93;100626.72;6343037;28;20055;-71
2023/08/12 09:23:21;;;;;;;1.58;1.40;;;;;;;26.86;38.00;100624.50;6341465;28;20048;-71
2023/08/12 09:26:22;;;;;;;3.17;1.33;;;;;;;27.20;37.33;100630.25;6342760;28;20127;-72
2023/08/12 09:29:26;;;;;;;3.33;1.42;;;;;;;27.31;37.56;100627.13;6342478;28;20044;-71
2023/08/12 09:32:28;;;;;;;2.08;1.50;;;;;;;27.14;40.89;100621.16;6342516;28;20079;-71
2023/08/12 09:35:37;;;;;;;1.90;1.30;;;;;;;27.14;36.81;100619.28;6315177;28;20056;-72
2023/08/12 09:38:38;;;;;;;2.47;1.48;;;;;;;27.36;39.16;100618.50;6221417;28;20465;-71
2023/08/12 09:41:44;;;;;;;2.03;1.17;;;;;;;26.98;38.27;100611.47;6221026;28;20058;-72
2023/08/12 09:44:46;;;;;;;1.80;1.13;;;;;;;27.26;37.72;100614.31;6222207;28;20099;-71
2023/08/12 09:47:49;;;;;;;3.53;1.70;;;;;;;27.42;37.98;100615.06;6221041;28;20046;-71
2023/08/12 09:50:50;;;;;;;2.15;1.20;;;;;;;27.29;37.00;100611.22;6220780;28;20080;-72
2023/08/12 09:53:51;;;;;;;1.75;1.08;;;;;;;26.92;35.54;100606.88;6221079;28;20060;-73
2023/08/12 09:56:56;;;;;;;2.30;1.30;;;;;;;27.00;36.83;100606.75;6221976;28;20049;-73
2023/08/12 09:59:58;;;;;;;3.33;1.50;;;;;;;27.49;37.47;100605.25;6220871;28;20054;-73
2023/08/12 10:03:00;;;;;;;;;;;;;;;27.43;36.16;100603.34;6222121;28;20398;-72
2023/08/12 10:06:04;;;;;;;1.52;1.30;;;;;;;27.63;36.44;100603.53;6220690;28;20000;-72
2023/08/12 10:09:08;;;;;;;3.50;1.38;;;;;;;27.66;39.23;100595.94;6221811;28;20085;-72
2023/08/12 10:12:10;;;;;;;2.17;1.40;;;;;;;27.18;34.02;100605.50;6220676;28;20049;-73
2023/08/12 10:15:11;;;;;;;2.30;1.17;;;;;;;27.55;34.84;100599.16;6221520;28;20049;-72
2023/08/12 10:18:16;;;;;;;;;;;;;;;26.97;34.12;100592.91;6220831;28;20522;-72
2023/08/12 10:21:17;;;;;;;1.60;1.00;;;;;;;27.25;34.25;100599.25;6221520;28;20427;-72
2023/08/12 10:24:20;;;;;;;;;;;;;;;27.81;34.82;100587.81;6221858;28;20406;-72
2023/08/12 10:27:21;;;;;;;2.60;1.30;;;;;;;27.90;34.54;100593.88;6221610;28;19964;-72
2023/08/12 10:30:22;;;;;;;2.38;1.45;;;;;;;28.27;34.45;100590.03;6220211;28;20057;-73
2023/08/12 10:33:22;;;;;;;1.67;1.17;;;;;;;28.08;33.68;100588.88;6220256;28;20050;-72
2023/08/12 10:36:26;;;;;;;1.63;1.40;;;;;;;28.28;33.84;100580.97;6219818;28;20290;-72
2023/08/12 10:39:28;;;;;;;2.78;1.50;;;;;;;28.51;32.41;100586.06;6219977;28;20413;-73
2023/08/12 10:42:47;;;;;;;1.70;1.10;;;;;;;27.51;34.79;100577.25;6219854;28;20050;-73
2023/08/12 10:45:52;;;;;;;1.90;1.33;;;;;;;28.16;35.55;100585.22;6219664;28;20489;-73
2023/08/12 10:49:02;;;;;;;1.75;1.10;;;;;;;27.52;34.07;100584.25;6219975;28;20099;-72
2023/08/12 10:52:03;;;;;;;2.70;1.20;;;;;;;28.58;35.28;100575.38;6221080;28;20086;-73
2023/08/12 10:55:23;;;;;;;3.17;1.10;;;;;;;29.22;35.57;100568.81;6219651;28;20471;-73
2023/08/12 10:58:36;;;;;;;1.45;1.20;;;;;;;28.34;33.30;100577.47;6220926;28;20134;-72
2023/08/12 11:01:37;;;;;;;1.20;1.10;;;;;;;28.85;36.11;100575.50;6220697;28;20489;-72
2023/08/12 11:04:40;;;;;;;4.57;1.50;;;;;;;29.24;34.36;100571.28;6219514;28;20057;-73
2023/08/12 11:08:01;;;;;;;2.05;1.20;;;;;;;29.19;33.48;100568.38;6220645;28;20050;-72
2023/08/12 11:11:02;;;;;;;2.13;1.40;;;;;;;29.10;34.27;100559.66;6219844;28;20137;-73
2023/08/12 11:14:16;;;;;;;1.75;1.30;;;;;;;29.08;33.28;100559.03;6219238;28;20050;-73
2023/08/12 11:17:17;;;;;;;2.78;1.13;;;;;;;29.16;31.70;100550.81;6220571;28;20050;-73
2023/08/12 11:20:18;;;;;;;1.73;1.17;;;;;;;29.53;34.80;100544.03;6219253;28;20111;-72
2023/08/12 11:23:20;;;;;;;;;;;;;;;29.38;32.22;100548.75;6220860;28;20058;-71
2023/08/12 11:26:23;;;;;;;2.83;1.48;;;;;;;29.43;34.27;100540.09;6220232;28;19972;-72
2023/08/12 11:29:24;;;;;;;2.60;1.23;;;;;;;29.54;33.53;100542.97;6220375;28;20050;-73
2023/08/12 11:32:25;;;;;;;2.85;1.00;;;;;;;29.83;31.38;100537.44;6218952;28;20080;-73
2023/08/12 11:35:26;;;;;;;3.00;0.93;;;;;;;29.43;30.64;100540.94;6220213;28;20050;-72
2023/08/12 11:38:26;;;;;;;3.67;1.00;;;;;;;29.48;33.18;100543.81;6218924;28;20054;-72
2023/08/12 11:41:29;;;;;;;1.30;1.02;;;;;;;29.59;33.19;100534.31;6219021;28;20060;-72
2023/08/12 11:44:31;;;;;;;3.70;1.25;;;;;;;29.60;31.64;100529.75;6219767;28;20478;-72
2023/08/12 11:47:31;;;;;;;2.15;1.02;;;;;;;30.09;33.57;100533.88;6218725;28;20061;-72
2023/08/12 11:50:35;;;;;;;3.80;1.40;;;;;;;29.98;33.14;100532.66;6218703;28;20545;-73
2023/08/12 11:53:37;;;;;;;1.95;1.13;;;;;;;30.09;32.43;100532.00;6219741;28;20489;-73
2023/08/12 11:56:40;;;;;;;2.88;1.48;;;;;;;29.97;30.25;100522.91;6218726;28;20087;-73
2023/08/12 11:59:42;;;;;;;2.22;1.13;;;;;;;29.15;33.22;100524.16;6219355;28;20054;-73
2023/08/12 12:02:49;;;;;;;1.70;1.02;;;;;;;28.93;33.57;100521.56;6219579;28;20516;-72
2023/08/12 12:05:56;;;;;;;1.38;1.17;;;;;;;28.58;31.42;100515.47;6219422;28;20050;-72
2023/08/12 12:09:04;;;;;;;1.50;1.00;;;;;;;28.19;33.90;100512.41;6218795;28;20049;-73
2023/08/12 12:12:04;;;;;;;2.75;1.38;;;;;;;28.62;32.56;100516.72;6219593;28;20107;-73
2023/08/12 12:15:06;;;;;;;1.67;1.10;;;;;;;29.16;33.21;100504.28;6218478;28;20050;-72
2023/08/12 12:18:13;;;;;;;3.13;1.33;;;;;;;29.22;32.38;100504.31;6218239;28;20045;-73
2023/08/12 12:21:21;;;;;;;1.20;1.10;;;;;;;29.57;32.46;100508.66;6219613;28;20054;-72
2023/08/12 12:24:22;;;;;;;1.50;1.02;;;;;;;29.66;34.98;100504.75;6219376;28;20046;-72
2023/08/12 12:27:27;;;;;;;1.23;0.90;;;;;;;29.84;35.15;100504.13;6217949;28;20053;-73
2023/08/12 12:30:30;;;;;;;1.45;1.10;;;;;;;29.70;33.08;100495.22;6218104;28;20046;-73
2023/08/12 12:33:30;;;;;;;2.92;1.23;;;;;;;29.50;34.63;100503.28;6218160;28;20136;-73
2023/08/12 12:36:36;;;;;;;3.50;1.20;;;;;;;29.73;30.06;100498.34;6219051;28;20054;-73
2023/08/12 12:39:36;;;;;;;1.58;1.00;;;;;;;29.12;30.75;100488.59;6217957;28;20049;-73
2023/08/12 12:42:38;;;;;;;1.70;1.02;;;;;;;29.26;33.92;100491.28;6205479;28;20351;-73
2023/08/12 12:45:39;;;;;;;1.77;1.42;;;;;;;29.57;35.13;100490.69;6224779;28;20085;-72
2023/08/12 12:48:40;;;;;;;1.65;1.00;;;;;;;29.69;33.43;100491.72;6216018;28;20058;-73
2023/08/12 12:51:45;;;;;;;2.45;1.17;;;;;;;29.79;31.53;100488.59;6216260;28;20049;-72
2023/08/12 12:54:46;;;;;;;2.05;1.20;;;;;;;29.84;33.47;100498.75;6216206;28;20046;-73
2023/08/12 12:57:47;;;;;;;4.20;1.55;;;;;;;29.95;29.53;100492.72;6216726;28;20122;-72
2023/08/12 13:00:47;;;;;;;2.22;1.27;;;;;;;29.66;30.01;100477.84;6217227;28;20057;-73
2023/08/12 13:03:48;;;;;;;2.10;1.20;;;;;;;29.53;32.47;100484.91;6215816;28;20054;-72
2023/08/12 13:06:51;;;;;;;2.17;0.95;;;;;;;29.46;32.77;100480.53;6232189;28;20046;-73
2023/08/12 13:09:57;;;;;;;0.90;0.80;;;;;;;29.52;36.69;100483.22;6215674;28;20057;-71
2023/08/12 13:13:00;;;;;;;1.00;0.90;;;;;;;29.61;32.09;100481.16;6219378;28;20115;-72
2023/08/12 13:16:00;;;;;;;2.40;1.23;;;;;;;29.59;32.19;100479.69;6219907;28;20065;-73
2023/08/12 13:19:03;;;;;;;1.77;1.10;;;;;;;29.34;32.09;100477.66;6221435;28;20050;-73
2023/08/12 13:22:06;;;;;;;1.48;1.02;;;;;;;29.46;34.68;100478.69;6219287;28;20072;-72
2023/08/12 13:25:07;;;;;;;2.17;1.30;;;;;;;29.63;30.88;100478.25;6220399;28;20455;-72
2023/08/12 13:28:08;;;;;;;2.55;1.30;;;;;;;29.63;35.45;100475.56;6221254;28;20050;-72
2023/08/12 13:50:32;;;;;;;1.40;1.27;;;;;;;29.38;33.65;100462.75;6395298;27;20382;-73
2023/08/12 13:53:33;;;;;;;1.05;0.73;;;;;;;29.13;33.87;100460.69;6394092;27;20046;-72
2023/08/12 13:56:34;;;;;;;1.50;1.10;;;;;;;29.07;38.88;100466.03;6393894;27;20109;-72
2023/08/12 13:59:35;;;;;;;1.67;1.42;;;;;;;29.05;37.20;100462.72;6393869;27;20069;-72
2023/08/12 14:02:36;;;;;;;1.67;0.85;;;;;;;28.75;35.48;100464.97;6393706;27;20123;-72
2023/08/12 14:05:42;;;;;;;1.45;1.17;;;;;;;28.51;33.76;100453.72;6393842;27;20051;-72
2023/08/12 14:08:43;;;;;;;1.98;1.17;;;;;;;28.36;34.18;100456.53;6393644;27;20043;-72
2023/08/12 14:11:43;;;;;;;1.75;1.20;;;;;;;27.94;33.36;100455.72;6393572;27;20103;-72
2023/08/12 14:31:01;;;;;;;1.60;1.23;;;;;;;27.90;35.66;100435.69;6343875;27;20371;-74
2023/08/12 14:34:03;;;;;;;2.08;1.23;;;;;;;27.72;36.64;100428.97;6342653;28;20044;-75
2023/08/12 14:37:07;;;;;;;1.10;0.98;;;;;;;27.54;35.43;100440.19;6342516;28;20139;-74
2023/08/12 14:40:09;;;;;;;1.63;1.10;;;;;;;27.64;38.76;100436.34;6343606;28;20483;-74
2023/08/12 14:43:10;;;;;;;2.70;1.25;;;;;;;27.59;34.88;100438.75;6342282;28;20134;-72
2023/08/12 14:46:12;;;;;;;1.50;1.23;;;;;;;27.51;36.85;100437.91;6343350;28;20062;-74
2023/08/12 14:49:13;;;;;;;2.05;1.25;;;;;;;27.39;36.89;100426.06;6342369;28;20453;-74
2023/08/12 14:52:18;;;;;;;1.20;1.10;;;;;;;27.28;36.14;100432.78;6342159;28;20051;-73
2023/08/12 14:55:19;;;;;;;2.10;1.17;;;;;;;27.17;35.98;100429.75;6342117;28;20052;-74
2023/08/12 14:58:20;;;;;;;1.92;1.50;;;;;;;27.19;36.96;100420.50;6343103;28;20105;-74